Time;durP1;ratioP1;P1;durP2;ratioP2;P2;SDS_P1;SDS_P2;PMS_P1;PMS_P2;Temp;Humidity;BMP_temperature;BMP_pressure;BME280_temperature;BME280_humidity;BME280_pressure;Samples;Min_cycle;Max_cycle;Signal;HPM_P1;HPM_P2
2022/02/17 00:02:20;;;;;;;1999.90;999.90;;;;;;;8.33;96.82;164617.91;5012813;28;20073;-68
2022/02/17 00:04:46;;;;;;;1999.90;999.90;;;;;;;8.34;96.43;164622.00;5014422;28;20054;-68
2022/02/17 00:07:13;;;;;;;1999.90;999.90;;;;;;;8.32;96.72;164616.53;5011478;28;20414;-68
2022/02/17 00:09:40;;;;;;;1999.90;999.90;;;;;;;8.40;96.42;164638.50;5026389;28;20088;-69
2022/02/17 00:12:07;;;;;;;1999.90;999.90;;;;;;;8.46;96.15;164653.69;5018811;28;20108;-69
2022/02/17 00:14:33;;;;;;;1999.90;999.90;;;;;;;8.57;96.03;164682.56;5013298;28;20389;-68
2022/02/17 00:17:00;;;;;;;1999.90;999.90;;;;;;;8.55;96.02;164677.09;5013649;28;20058;-68
2022/02/17 00:19:26;;;;;;;1999.90;999.90;;;;;;;8.69;95.35;164714.22;5017687;28;20107;-68
2022/02/17 00:21:53;;;;;;;1999.90;999.90;;;;;;;8.92;94.28;164777.50;5022211;28;20073;-67
2022/02/17 00:24:19;;;;;;;1999.90;999.90;;;;;;;9.04;93.99;164809.13;5017914;28;20093;-68
2022/02/17 00:26:46;;;;;;;1999.90;999.90;;;;;;;8.94;94.46;164781.63;5022733;28;20065;-69
2022/02/17 00:29:13;;;;;;;1999.90;999.90;;;;;;;8.81;95.05;164747.22;5010413;28;20078;-68
2022/02/17 00:31:39;;;;;;;1999.90;999.90;;;;;;;8.95;94.43;164784.38;5015600;28;20084;-68
2022/02/17 00:34:07;;;;;;;1999.90;999.90;;;;;;;8.77;95.10;164737.59;5015012;28;20077;-68
2022/02/17 00:36:34;;;;;;;1999.90;999.90;;;;;;;8.72;95.71;164723.81;5015686;28;20049;-69
2022/02/17 00:39:00;;;;;;;1999.90;999.90;;;;;;;8.73;95.87;164725.22;5017346;28;20084;-68
2022/02/17 00:41:27;;;;;;;1999.90;999.90;;;;;;;8.72;95.90;164723.81;5022676;28;20049;-68
2022/02/17 00:43:53;;;;;;;1999.90;999.90;;;;;;;8.78;95.84;164740.38;5020414;28;20163;-68
2022/02/17 00:46:20;;;;;;;1999.90;999.90;;;;;;;8.74;96.21;164729.34;5020723;28;20099;-68
2022/02/17 00:48:47;;;;;;;1999.90;999.90;;;;;;;8.82;97.83;164751.34;5022573;28;20131;-68
2022/02/17 00:51:14;;;;;;;1999.90;999.90;;;;;;;8.77;97.18;164737.59;5013232;28;20363;-69
2022/02/17 00:53:41;;;;;;;1999.90;999.90;;;;;;;8.84;97.17;164754.09;5026587;28;20111;-68
2022/02/17 00:56:07;;;;;;;1999.90;999.90;;;;;;;8.95;96.48;164785.75;5024576;28;20077;-68
2022/02/17 00:58:34;;;;;;;1999.90;999.90;;;;;;;8.76;97.18;164734.84;5018025;28;20132;-69
2022/02/17 01:01:00;;;;;;;1999.90;999.90;;;;;;;8.75;97.45;164732.13;5018866;28;20095;-68
2022/02/17 01:03:27;;;;;;;1999.90;999.90;;;;;;;9.01;96.66;164800.88;5018857;28;20435;-69
2022/02/17 01:05:53;;;;;;;1999.90;999.90;;;;;;;8.89;98.14;164767.88;5016402;28;20084;-67
2022/02/17 01:08:20;;;;;;;1999.90;999.90;;;;;;;8.80;99.23;164745.84;5021895;28;20053;-67
2022/02/17 01:10:46;;;;;;;1999.90;999.90;;;;;;;8.63;100.00;164699.06;5024121;28;20049;-68
2022/02/17 01:13:13;;;;;;;1999.90;999.90;;;;;;;8.93;99.74;164778.84;5021744;28;20096;-69
2022/02/17 01:15:40;;;;;;;1999.90;999.90;;;;;;;8.90;99.45;164770.59;5019249;28;20050;-69
2022/02/17 01:18:06;;;;;;;1999.90;999.90;;;;;;;9.18;97.82;164844.91;5023587;28;20253;-69
2022/02/17 01:20:32;;;;;;;1999.90;999.90;;;;;;;9.10;98.23;164825.63;5027554;28;20050;-69
2022/02/17 01:22:59;;;;;;;1999.90;999.90;;;;;;;9.07;98.10;164817.38;5026817;28;20123;-69
2022/02/17 01:25:25;;;;;;;1999.90;999.90;;;;;;;9.28;97.54;164872.44;5024095;28;20326;-68
2022/02/17 01:27:53;;;;;;;1999.90;999.90;;;;;;;9.11;97.47;164828.41;5017607;28;20054;-68
2022/02/17 01:30:20;;;;;;;1999.90;999.90;;;;;;;8.97;97.57;164789.88;5022590;28;20053;-69
2022/02/17 01:32:46;;;;;;;1999.90;999.90;;;;;;;8.90;98.26;164770.59;5021457;28;20038;-68
2022/02/17 01:35:13;;;;;;;1999.90;999.90;;;;;;;9.15;96.97;164839.44;5026096;28;20049;-68
2022/02/17 01:37:41;;;;;;;1999.90;999.90;;;;;;;9.13;97.29;164832.53;5020008;28;20053;-67
2022/02/17 01:40:09;;;;;;;1999.90;999.90;;;;;;;9.05;97.79;164811.91;5012554;28;20085;-68
2022/02/17 01:42:36;;;;;;;1999.90;999.90;;;;;;;8.81;99.25;164748.63;5019344;28;20528;-68
2022/02/17 01:45:07;;;;;;;1999.90;999.90;;;;;;;8.78;100.00;164740.38;5014689;28;20289;-70
2022/02/17 01:47:34;;;;;;;1999.90;999.90;;;;;;;8.54;100.00;164674.31;5016240;28;20064;-68
2022/02/17 01:50:01;;;;;;;1999.90;999.90;;;;;;;8.66;100.00;164707.31;5016380;28;20355;-68
2022/02/17 01:52:27;;;;;;;1999.90;999.90;;;;;;;8.56;100.00;164679.81;5045270;28;20073;-67
2022/02/17 01:54:54;;;;;;;1999.90;999.90;;;;;;;8.70;100.00;164718.34;5020165;28;20088;-68
2022/02/17 01:57:26;;;;;;;1999.90;999.90;;;;;;;8.54;100.00;164675.69;5017086;28;20104;-69
2022/02/17 01:59:53;;;;;;;1999.90;999.90;;;;;;;8.32;100.00;164616.53;5022438;28;20089;-68
2022/02/17 02:02:21;;;;;;;1999.90;999.90;;;;;;;8.08;100.00;164553.28;5022379;28;20385;-68
2022/02/17 02:04:48;;;;;;;1999.90;999.90;;;;;;;8.14;100.00;164567.00;5015959;28;20052;-67
2022/02/17 02:07:14;;;;;;;1999.90;999.90;;;;;;;8.01;100.00;164534.03;5019723;28;20325;-67
2022/02/17 02:09:41;;;;;;;1999.90;999.90;;;;;;;8.04;100.00;164542.28;5014516;28;20129;-67
2022/02/17 02:12:09;;;;;;;1999.90;999.90;;;;;;;8.05;100.00;164543.63;5022197;28;20119;-67
2022/02/17 02:14:47;;;;;;;1999.90;999.90;;;;;;;7.94;100.00;164516.13;5023085;28;20046;-67
2022/02/17 02:17:13;;;;;;;1999.90;999.90;;;;;;;7.90;100.00;164503.75;5017013;28;20111;-67
2022/02/17 02:19:40;;;;;;;1999.90;999.90;;;;;;;7.96;100.00;164520.25;5023202;28;20085;-67
2022/02/17 02:22:06;;;;;;;1999.90;999.90;;;;;;;8.10;100.00;164558.75;5021605;28;20068;-67
2022/02/17 02:24:33;;;;;;;1999.90;999.90;;;;;;;8.15;100.00;164571.13;5023239;28;20080;-67
2022/02/17 02:26:59;;;;;;;1999.90;999.90;;;;;;;7.96;100.00;164518.88;5025411;28;20057;-67
2022/02/17 02:29:26;;;;;;;1999.90;999.90;;;;;;;8.06;100.00;164546.38;5017912;28;20045;-67
2022/02/17 02:31:52;;;;;;;1999.90;999.90;;;;;;;8.11;100.00;164561.53;5028431;28;20084;-68
2022/02/17 02:34:19;;;;;;;1999.90;999.90;;;;;;;8.17;100.00;164575.25;5025025;28;20038;-67
2022/02/17 02:36:45;;;;;;;1999.90;999.90;;;;;;;7.95;100.00;164517.53;5016537;28;20053;-67
2022/02/17 02:39:11;;;;;;;1999.90;999.90;;;;;;;8.01;100.00;164534.03;5020420;28;20087;-67
2022/02/17 02:41:38;;;;;;;1999.90;999.90;;;;;;;7.96;100.00;164520.25;5015573;28;21674;-66
2022/02/17 02:44:04;;;;;;;1999.90;999.90;;;;;;;7.99;100.00;164528.50;5017411;28;20054;-67
2022/02/17 02:46:31;;;;;;;1999.90;999.90;;;;;;;8.04;100.00;164540.84;5019213;28;20050;-67
2022/02/17 02:48:57;;;;;;;1999.90;999.90;;;;;;;8.05;100.00;164545.03;5016902;28;20096;-67
2022/02/17 02:51:24;;;;;;;1999.90;999.90;;;;;;;7.95;100.00;164517.53;5012271;28;20058;-67
2022/02/17 02:53:50;;;;;;;1999.90;999.90;;;;;;;8.02;100.00;164536.75;5011689;28;20050;-67
2022/02/17 02:56:17;;;;;;;1999.90;999.90;;;;;;;8.13;100.00;164564.25;5016124;28;20045;-67
2022/02/17 02:58:44;;;;;;;1999.90;999.90;;;;;;;7.98;100.00;164525.78;5014456;28;20405;-67
2022/02/17 03:01:10;;;;;;;1999.90;999.90;;;;;;;8.03;100.00;164539.50;5011234;28;20077;-67
2022/02/17 03:03:37;;;;;;;1999.90;999.90;;;;;;;7.99;100.00;164528.50;5013043;28;20108;-66
2022/02/17 03:06:03;;;;;;;1999.90;999.90;;;;;;;7.98;100.00;164525.78;5023459;28;20061;-67
2022/02/17 03:08:30;;;;;;;1999.90;999.90;;;;;;;8.05;100.00;164545.03;5018068;28;20083;-67
2022/02/17 03:10:56;;;;;;;1999.90;999.90;;;;;;;8.11;100.00;164561.53;5021733;28;20074;-67
2022/02/17 03:13:23;;;;;;;1999.90;999.90;;;;;;;8.14;100.00;164568.38;5020303;28;20397;-67
2022/02/17 03:15:49;;;;;;;1999.90;999.90;;;;;;;8.22;100.00;164589.03;5016451;28;20393;-68
2022/02/17 03:18:16;;;;;;;1999.90;999.90;;;;;;;8.20;100.00;164583.50;5013689;28;20497;-67
2022/02/17 03:20:42;;;;;;;1999.90;999.90;;;;;;;8.42;100.00;164642.63;5018799;28;20451;-67
2022/02/17 03:23:09;;;;;;;1999.90;999.90;;;;;;;8.38;100.00;164631.63;5012344;28;20068;-67
2022/02/17 03:25:35;;;;;;;1999.90;999.90;;;;;;;8.45;100.00;164652.28;5012279;28;20655;-67
2022/02/17 03:28:02;;;;;;;1999.90;999.90;;;;;;;8.62;100.00;164696.34;5022440;28;20525;-67
2022/02/17 03:30:28;;;;;;;1999.90;999.90;;;;;;;8.74;100.00;164729.34;5020160;28;20394;-68
2022/02/17 03:32:57;;;;;;;1999.90;999.90;;;;;;;9.04;100.00;164807.78;5021410;28;20132;-68
2022/02/17 03:35:24;;;;;;;1999.90;999.90;;;;;;;8.78;100.00;164740.38;5017359;28;20050;-67
2022/02/17 03:37:50;;;;;;;1999.90;999.90;;;;;;;8.76;100.00;164734.84;5020965;28;20046;-68
2022/02/17 03:40:17;;;;;;;1999.90;999.90;;;;;;;8.82;100.00;164751.34;5018074;28;20172;-68
2022/02/17 03:42:44;;;;;;;1999.90;999.90;;;;;;;8.79;100.00;164743.09;5026757;28;20077;-68
2022/02/17 03:45:11;;;;;;;1999.90;999.90;;;;;;;8.87;100.00;164763.72;5016583;28;20396;-70
2022/02/17 03:47:38;;;;;;;1999.90;999.90;;;;;;;8.92;100.00;164777.50;5011716;28;20101;-68
2022/02/17 03:50:06;;;;;;;1999.90;999.90;;;;;;;8.86;100.00;164759.56;5014296;28;20450;-68
2022/02/17 03:52:33;;;;;;;1999.90;999.90;;;;;;;8.93;100.00;164778.84;5024668;28;20454;-68
2022/02/17 03:54:59;;;;;;;1999.90;999.90;;;;;;;8.97;100.00;164789.88;5014773;28;20077;-67
2022/02/17 03:57:26;;;;;;;1999.90;999.90;;;;;;;8.92;100.00;164777.50;5017775;28;20173;-68
2022/02/17 03:59:55;;;;;;;1999.90;999.90;;;;;;;9.07;100.00;164817.38;5023339;28;20053;-68
2022/02/17 04:02:21;;;;;;;1999.90;999.90;;;;;;;9.12;100.00;164831.13;5019762;28;20073;-68
2022/02/17 04:04:48;;;;;;;1999.90;999.90;;;;;;;9.33;100.00;164886.19;5019115;28;20038;-68
2022/02/17 04:07:15;;;;;;;1999.90;999.90;;;;;;;9.37;100.00;164897.19;5019799;28;20088;-67
2022/02/17 04:09:42;;;;;;;1999.90;999.90;;;;;;;9.45;100.00;164917.81;5022085;28;20100;-68
2022/02/17 04:12:09;;;;;;;1999.90;999.90;;;;;;;9.48;100.00;164927.50;5015542;28;20434;-68
2022/02/17 04:14:35;;;;;;;1999.90;999.90;;;;;;;9.37;100.00;164897.19;5014877;28;20085;-68
2022/02/17 04:17:02;;;;;;;1999.90;999.90;;;;;;;9.52;100.00;164938.47;5017417;28;20458;-68
2022/02/17 04:19:30;;;;;;;1999.90;999.90;;;;;;;9.53;100.00;164939.88;5010422;28;20128;-68
2022/02/17 04:21:56;;;;;;;1999.90;999.90;;;;;;;9.43;100.00;164913.69;5012919;28;20105;-67
2022/02/17 04:24:23;;;;;;;1999.90;999.90;;;;;;;9.55;100.00;164944.00;5014703;28;20073;-69
2022/02/17 04:26:49;;;;;;;1999.90;999.90;;;;;;;9.48;100.00;164927.50;5024854;28;20053;-68
2022/02/17 04:29:16;;;;;;;1999.90;999.90;;;;;;;9.53;100.00;164939.88;5023543;28;20099;-67
2022/02/17 04:31:42;;;;;;;1999.90;999.90;;;;;;;9.57;100.00;164950.91;5016239;28;20081;-67
2022/02/17 04:34:09;;;;;;;1999.90;999.90;;;;;;;9.51;100.00;164935.75;5011114;28;20065;-67
2022/02/17 04:36:37;;;;;;;1999.90;999.90;;;;;;;9.53;100.00;164939.88;5012954;28;20049;-67
2022/02/17 04:39:03;;;;;;;1999.90;999.90;;;;;;;9.64;100.00;164970.13;5013907;28;20107;-67
2022/02/17 04:44:14;;;;;;;1999.90;999.90;;;;;;;9.69;100.00;164982.50;5016935;28;20107;-68
2022/02/17 04:46:41;;;;;;;1999.90;999.90;;;;;;;9.76;100.00;165001.78;5020580;28;20049;-68
2022/02/17 04:49:10;;;;;;;1999.90;999.90;;;;;;;9.63;100.00;164966.00;5019997;28;20052;-68
2022/02/17 04:51:36;;;;;;;1999.90;999.90;;;;;;;9.66;100.00;164974.25;5027140;28;20116;-68
2022/02/17 04:54:03;;;;;;;1999.90;999.90;;;;;;;9.69;100.00;164983.91;5030553;28;20082;-67
2022/02/17 04:56:30;;;;;;;1999.90;999.90;;;;;;;9.84;100.00;165023.81;5017767;28;20045;-67
2022/02/17 04:58:57;;;;;;;1999.90;999.90;;;;;;;9.63;100.00;164967.41;5012791;28;20113;-68
2022/02/17 05:01:23;;;;;;;1999.90;999.90;;;;;;;9.86;100.00;165027.94;5020357;28;20085;-68
2022/02/17 05:03:50;;;;;;;1999.90;999.90;;;;;;;10.00;100.00;165065.09;5021857;28;20038;-68
2022/02/17 05:06:16;;;;;;;1999.90;999.90;;;;;;;10.04;100.00;165076.13;5024860;28;20419;-68
2022/02/17 05:08:43;;;;;;;1999.90;999.90;;;;;;;9.99;100.00;165062.38;5016390;28;20080;-68
2022/02/17 05:11:10;;;;;;;1999.90;999.90;;;;;;;9.93;100.00;165045.81;5024283;28;20107;-67
2022/02/17 05:13:36;;;;;;;1999.90;999.90;;;;;;;9.97;100.00;165056.84;5025395;28;20092;-67
2022/02/17 05:16:03;;;;;;;1999.90;999.90;;;;;;;10.27;100.00;165138.09;5015520;28;20072;-68
2022/02/17 05:18:29;;;;;;;1999.90;999.90;;;;;;;10.06;100.00;165081.63;5015395;28;20418;-67
2022/02/17 05:20:56;;;;;;;1999.90;999.90;;;;;;;10.16;100.00;165107.81;5018132;28;20081;-68
2022/02/17 05:23:23;;;;;;;1999.90;999.90;;;;;;;10.11;100.00;165095.41;5015004;28;20054;-68
2022/02/17 05:25:49;;;;;;;1999.90;999.90;;;;;;;10.19;100.00;165117.41;5016254;28;20095;-68
2022/02/17 05:28:16;;;;;;;1999.90;999.90;;;;;;;10.28;100.00;165139.47;5015023;28;20057;-67
2022/02/17 05:30:46;;;;;;;1999.90;999.90;;;;;;;10.18;100.00;165114.69;5019311;28;20046;-68
2022/02/17 05:33:14;;;;;;;1999.90;999.90;;;;;;;10.37;100.00;165164.28;5014326;28;20047;-68
2022/02/17 05:35:41;;;;;;;1999.90;999.90;;;;;;;10.06;100.00;165081.63;5014908;28;20045;-68
2022/02/17 05:38:08;;;;;;;1999.90;999.90;;;;;;;10.31;100.00;165149.09;5017706;28;20072;-68
2022/02/17 05:40:35;;;;;;;1999.90;999.90;;;;;;;10.19;100.00;165116.06;5026151;28;20116;-68
2022/02/17 05:43:03;;;;;;;1999.90;999.90;;;;;;;10.28;100.00;165139.47;5029896;28;20450;-69
2022/02/17 05:45:30;;;;;;;1999.90;999.90;;;;;;;10.29;100.00;165143.59;5019411;28;20048;-69
2022/02/17 05:47:57;;;;;;;1999.90;999.90;;;;;;;10.36;100.00;165161.53;5018634;28;20112;-69
2022/02/17 05:50:24;;;;;;;1999.90;999.90;;;;;;;10.49;100.00;165197.31;5013091;28;20104;-69
2022/02/17 05:52:50;;;;;;;1999.90;999.90;;;;;;;10.63;100.00;165233.13;5015159;28;20053;-69
2022/02/17 05:55:17;;;;;;;1999.90;999.90;;;;;;;10.56;100.00;165215.25;5016986;28;20548;-69
2022/02/17 05:57:44;;;;;;;1999.90;999.90;;;;;;;10.47;100.00;165190.47;5014016;28;20093;-69
2022/02/17 06:00:12;;;;;;;1999.90;999.90;;;;;;;10.50;100.00;165198.75;5014478;28;20046;-69
2022/02/17 06:02:40;;;;;;;1999.90;999.90;;;;;;;10.67;100.00;165244.16;5024849;28;20150;-69
2022/02/17 06:05:08;;;;;;;1999.90;999.90;;;;;;;10.64;100.00;165235.91;5024828;28;20041;-69
2022/02/17 06:07:34;;;;;;;1999.90;999.90;;;;;;;10.54;100.00;165211.13;5013822;28;20343;-70
2022/02/17 06:10:01;;;;;;;1999.90;999.90;;;;;;;10.47;100.00;165191.84;5045357;28;20423;-69
2022/02/17 06:12:27;;;;;;;1999.90;999.90;;;;;;;10.47;100.00;165190.47;5018604;28;20103;-69
2022/02/17 06:14:54;;;;;;;1999.90;999.90;;;;;;;10.54;100.00;165211.13;5012563;28;20069;-69
2022/02/17 06:17:20;;;;;;;1999.90;999.90;;;;;;;10.65;100.00;165238.69;5016450;28;20042;-68
2022/02/17 06:19:47;;;;;;;1999.90;999.90;;;;;;;10.60;100.00;165224.88;5010272;28;20045;-69
2022/02/17 06:22:13;;;;;;;1999.90;999.90;;;;;;;10.62;100.00;165230.41;5014559;28;20099;-69
2022/02/17 06:24:40;;;;;;;1999.90;999.90;;;;;;;10.61;100.00;165229.00;5014724;28;20113;-68
2022/02/17 06:27:06;;;;;;;1999.90;999.90;;;;;;;10.49;100.00;165197.31;5023239;28;20054;-68
2022/02/17 06:29:32;;;;;;;1999.90;999.90;;;;;;;10.55;100.00;165213.91;5021018;28;20410;-68
2022/02/17 06:31:59;;;;;;;1999.90;999.90;;;;;;;10.53;100.00;165208.34;5016055;28;20089;-68
2022/02/17 06:34:25;;;;;;;1999.90;999.90;;;;;;;10.75;100.00;165266.22;5023231;28;20415;-68
2022/02/17 06:36:52;;;;;;;1999.90;999.90;;;;;;;10.55;100.00;165212.50;5017328;28;20050;-68
2022/02/17 06:39:18;;;;;;;1999.90;999.90;;;;;;;10.77;100.00;165271.72;5020751;28;20103;-69
2022/02/17 06:41:45;;;;;;;1999.90;999.90;;;;;;;10.54;100.00;165209.75;5023662;28;20119;-69
2022/02/17 06:44:11;;;;;;;1999.90;999.90;;;;;;;10.64;100.00;165237.25;5024891;28;20100;-68
2022/02/17 06:46:38;;;;;;;1999.90;999.90;;;;;;;10.52;100.00;165204.22;5024783;28;20374;-68
2022/02/17 06:49:05;;;;;;;1999.90;999.90;;;;;;;10.81;100.00;165281.34;5023137;28;20524;-70
2022/02/17 06:51:31;;;;;;;1999.90;999.90;;;;;;;10.70;100.00;165252.41;5025293;28;20390;-68
2022/02/17 06:53:58;;;;;;;1999.90;999.90;;;;;;;10.65;100.00;165238.69;5019333;28;20174;-68
2022/02/17 06:56:24;;;;;;;1999.90;999.90;;;;;;;10.65;100.00;165238.69;5014290;28;20132;-68
2022/02/17 06:58:52;;;;;;;1999.90;999.90;;;;;;;10.75;100.00;165267.59;5023882;28;20049;-68
2022/02/17 07:01:19;;;;;;;1999.90;999.90;;;;;;;10.61;100.00;165229.00;5019260;28;20095;-68
2022/02/17 07:03:45;;;;;;;1999.90;999.90;;;;;;;10.67;100.00;165245.53;5014467;28;20435;-68
2022/02/17 07:06:11;;;;;;;1999.90;999.90;;;;;;;10.60;100.00;165226.28;5011499;28;20061;-68
2022/02/17 07:08:38;;;;;;;1999.90;999.90;;;;;;;10.73;100.00;165260.69;5026716;28;20049;-67
2022/02/17 07:11:06;;;;;;;1999.90;999.90;;;;;;;10.65;100.00;165240.03;5023884;28;20049;-68
2022/02/17 07:13:33;;;;;;;1999.90;999.90;;;;;;;10.64;100.00;165235.91;5018943;28;20076;-68
2022/02/17 07:16:00;;;;;;;1999.90;999.90;;;;;;;10.50;100.00;165200.09;5014206;28;20096;-68
2022/02/17 07:18:27;;;;;;;1999.90;999.90;;;;;;;10.41;100.00;165175.31;5019943;28;20087;-68
2022/02/17 07:20:55;;;;;;;1999.90;999.90;;;;;;;10.57;100.00;165218.03;5024187;28;20050;-68
2022/02/17 07:23:24;;;;;;;1999.90;999.90;;;;;;;10.33;100.00;165153.22;5018751;28;20072;-68
2022/02/17 07:25:52;;;;;;;1999.90;999.90;;;;;;;10.40;100.00;165172.56;5016533;28;20208;-68
2022/02/17 07:28:22;;;;;;;1999.90;999.90;;;;;;;10.39;100.00;165169.78;5011174;28;20049;-68
2022/02/17 07:30:50;;;;;;;1999.90;999.90;;;;;;;9.18;100.00;164844.91;5021555;28;20137;-68
2022/02/17 07:33:17;;;;;;;1999.90;999.90;;;;;;;7.96;100.00;164518.88;5025328;28;20050;-69
2022/02/17 07:35:44;;;;;;;1999.90;999.90;;;;;;;6.79;100.00;164206.91;5018150;28;20119;-68
2022/02/17 07:38:30;;;;;;;1999.90;999.90;;;;;;;5.36;100.00;163825.13;5014005;28;20041;-70
2022/02/17 07:40:57;;;;;;;1999.90;999.90;;;;;;;5.45;100.00;163849.88;5014668;28;20068;-67
2022/02/17 07:43:23;;;;;;;1999.90;999.90;;;;;;;5.21;100.00;163786.75;5022875;28;20081;-67
2022/02/17 07:45:50;;;;;;;1999.90;999.90;;;;;;;5.37;100.00;163829.25;5015729;28;20101;-67
2022/02/17 07:48:17;;;;;;;1999.90;999.90;;;;;;;5.47;100.00;163855.34;5019603;28;20046;-68
2022/02/17 07:50:43;;;;;;;1999.90;999.90;;;;;;;5.68;100.00;163911.63;5024691;28;20095;-68
2022/02/17 07:53:10;;;;;;;1999.90;999.90;;;;;;;5.61;100.00;163892.38;5010578;28;20054;-68
2022/02/17 07:55:36;;;;;;;1999.90;999.90;;;;;;;5.81;100.00;163945.94;5017225;28;20046;-65
2022/02/17 07:58:05;;;;;;;1999.90;999.90;;;;;;;5.74;100.00;163926.72;5011848;28;20058;-65
2022/02/17 08:00:33;;;;;;;1999.90;999.90;;;;;;;5.93;100.00;163978.88;5008830;28;20054;-67
2022/02/17 08:02:59;;;;;;;1999.90;999.90;;;;;;;5.81;100.00;163945.94;5017106;28;20073;-66
2022/02/17 08:05:26;;;;;;;1999.90;999.90;;;;;;;5.90;100.00;163969.28;5012370;28;20336;-67
2022/02/17 08:07:52;;;;;;;1999.90;999.90;;;;;;;5.96;100.00;163985.75;5013546;28;20431;-66
2022/02/17 08:10:19;;;;;;;1999.90;999.90;;;;;;;5.89;100.00;163966.53;5014800;28;20496;-66
2022/02/17 08:12:45;;;;;;;1999.90;999.90;;;;;;;5.92;100.00;163976.13;5015945;28;20054;-66
2022/02/17 08:15:12;;;;;;;1999.90;999.90;;;;;;;6.04;100.00;164007.75;5018871;28;20068;-67
2022/02/17 08:17:39;;;;;;;1999.90;999.90;;;;;;;5.75;100.00;163929.50;5024401;28;20057;-66
2022/02/17 08:20:06;;;;;;;1999.90;999.90;;;;;;;5.95;100.00;163984.34;5036122;28;20050;-67
2022/02/17 08:22:33;;;;;;;1999.90;999.90;;;;;;;6.25;100.00;164064.09;5019804;28;20068;-66
2022/02/17 08:24:59;;;;;;;1999.90;999.90;;;;;;;6.36;100.00;164092.94;5026281;28;20045;-67
2022/02/17 08:27:26;;;;;;;1999.90;999.90;;;;;;;6.62;100.00;164162.94;5021424;28;20096;-67
2022/02/17 08:29:52;;;;;;;1999.90;999.90;;;;;;;6.81;100.00;164212.44;5018439;28;20073;-66
2022/02/17 08:32:21;;;;;;;1999.90;999.90;;;;;;;6.60;100.00;164157.47;5018142;28;20307;-67
2022/02/17 08:34:48;;;;;;;1999.90;999.90;;;;;;;6.46;100.00;164119.00;5014635;28;20042;-67
2022/02/17 08:37:14;;;;;;;1999.90;999.90;;;;;;;6.66;100.00;164172.59;5026884;28;20053;-67
2022/02/17 08:39:41;;;;;;;1999.90;999.90;;;;;;;6.64;100.00;164168.47;5026452;28;20049;-67
2022/02/17 08:42:07;;;;;;;1999.90;999.90;;;;;;;6.60;100.00;164157.47;5026677;28;20061;-67
2022/02/17 08:44:34;;;;;;;1999.90;999.90;;;;;;;6.77;100.00;164202.78;5018534;28;20076;-67
2022/02/17 08:47:00;;;;;;;1999.90;999.90;;;;;;;6.91;100.00;164239.91;5020993;28;20057;-68
2022/02/17 08:49:27;;;;;;;1999.90;999.90;;;;;;;6.60;100.00;164157.47;5018991;28;20096;-68
2022/02/17 08:51:54;;;;;;;1999.90;999.90;;;;;;;6.47;100.00;164121.75;5016067;28;20072;-68
2022/02/17 08:54:20;;;;;;;1999.90;999.90;;;;;;;6.38;100.00;164097.03;5019075;28;20045;-68
2022/02/17 08:56:46;;;;;;;1999.90;999.90;;;;;;;6.37;100.00;164095.63;5015382;28;20046;-68
2022/02/17 08:59:13;;;;;;;1999.90;999.90;;;;;;;6.35;100.00;164090.16;5018370;28;20104;-68
2022/02/17 09:01:39;;;;;;;1999.90;999.90;;;;;;;6.86;100.00;164226.13;5028623;28;20091;-69
2022/02/17 09:04:06;;;;;;;1999.90;999.90;;;;;;;6.65;100.00;164171.19;5016047;28;20054;-68
2022/02/17 09:06:32;;;;;;;1999.90;999.90;;;;;;;6.51;100.00;164132.75;5021679;28;20164;-68
2022/02/17 09:09:00;;;;;;;1999.90;999.90;;;;;;;6.67;100.00;164175.34;5013218;28;20466;-68
2022/02/17 09:11:26;;;;;;;1999.90;999.90;;;;;;;6.77;100.00;164202.78;5020644;28;20438;-68
2022/02/17 09:13:53;;;;;;;1999.90;999.90;;;;;;;6.75;100.00;164195.94;5022043;28;20123;-68
2022/02/17 09:16:19;;;;;;;1999.90;999.90;;;;;;;6.85;100.00;164224.78;5019315;28;20113;-67
2022/02/17 09:18:46;;;;;;;1999.90;999.90;;;;;;;7.14;100.00;164301.72;5026251;28;20069;-68
2022/02/17 09:21:16;;;;;;;1999.90;999.90;;;;;;;7.00;100.00;164264.63;5019593;28;20056;-68
2022/02/17 09:23:43;;;;;;;1999.90;999.90;;;;;;;7.14;100.00;164300.34;5021470;28;20103;-68
2022/02/17 09:26:09;;;;;;;1999.90;999.90;;;;;;;7.63;100.00;164432.28;5025987;28;20460;-68
2022/02/17 09:28:36;;;;;;;1999.90;999.90;;;;;;;8.10;100.00;164558.75;5021144;28;20638;-68
2022/02/17 09:31:02;;;;;;;1999.90;999.90;;;;;;;8.41;100.00;164641.28;5014617;28;20053;-68
2022/02/17 09:33:29;;;;;;;1999.90;999.90;;;;;;;8.57;100.00;164683.94;5056911;28;20394;-68
2022/02/17 09:35:58;;;;;;;1999.90;999.90;;;;;;;8.95;100.00;164785.75;5026178;28;20427;-68
2022/02/17 09:38:31;;;;;;;1999.90;999.90;;;;;;;9.30;98.03;164877.91;5018816;28;20045;-68
2022/02/17 09:41:00;;;;;;;1999.90;999.90;;;;;;;9.44;94.16;164916.47;5016206;28;20050;-68
2022/02/17 09:43:26;;;;;;;1999.90;999.90;;;;;;;9.62;92.74;164964.63;5017466;28;20446;-68
2022/02/17 09:45:53;;;;;;;1999.90;999.90;;;;;;;9.74;89.11;164994.94;5015176;28;20046;-68
2022/02/17 09:48:20;;;;;;;1999.90;999.90;;;;;;;10.08;87.57;165085.75;5017498;28;20077;-67
2022/02/17 09:50:46;;;;;;;1999.90;999.90;;;;;;;9.85;86.00;165025.19;5020583;28;20049;-67
2022/02/17 09:53:13;;;;;;;1999.90;999.90;;;;;;;9.70;87.96;164985.25;5024133;28;20084;-68
2022/02/17 09:55:40;;;;;;;1999.90;999.90;;;;;;;9.69;85.96;164982.50;5017414;28;20133;-68
2022/02/17 09:58:06;;;;;;;1999.90;999.90;;;;;;;9.39;85.38;164902.69;5026576;28;20061;-67
2022/02/17 10:00:33;;;;;;;1999.90;999.90;;;;;;;9.51;86.05;164934.31;5014096;28;20127;-67
2022/02/17 10:03:28;;;;;;;1999.90;999.90;;;;;;;9.32;84.90;164883.44;5014514;28;20366;-68
2022/02/17 10:06:15;;;;;;;1999.90;999.90;;;;;;;9.25;85.77;164864.19;5013277;28;20333;-68
2022/02/17 10:08:43;;;;;;;1999.90;999.90;;;;;;;9.30;85.76;164877.91;5026527;28;20049;-67
2022/02/17 10:11:27;;;;;;;1999.90;999.90;;;;;;;9.35;85.94;164891.72;5017873;28;20572;-67
2022/02/17 10:14:03;;;;;;;1999.90;999.90;;;;;;;9.20;85.33;164850.41;5015583;28;20057;-67
2022/02/17 10:16:50;;;;;;;1999.90;999.90;;;;;;;9.55;86.39;164944.00;5026530;28;20046;-68
2022/02/17 10:19:17;;;;;;;1999.90;999.90;;;;;;;10.19;84.97;165117.41;5020281;28;20093;-67
2022/02/17 10:21:43;;;;;;;1999.90;999.90;;;;;;;10.55;84.10;165212.50;5029863;28;20084;-68
2022/02/17 10:24:38;;;;;;;1999.90;999.90;;;;;;;9.78;84.74;165007.31;5010780;28;20427;-66
2022/02/17 10:27:13;;;;;;;1999.90;999.90;;;;;;;9.67;85.49;164977.00;5013894;28;20516;-67
2022/02/17 10:29:56;;;;;;;1999.90;999.90;;;;;;;9.66;86.56;164975.66;5013956;28;20057;-68
2022/02/17 10:32:22;;;;;;;1999.90;999.90;;;;;;;9.85;85.09;165026.59;5014114;28;20635;-66
2022/02/17 10:35:06;;;;;;;1999.90;999.90;;;;;;;10.33;84.47;165153.22;5014874;28;20099;-68
2022/02/17 10:37:50;;;;;;;1999.90;999.90;;;;;;;10.77;82.14;165271.72;5012314;28;20053;-67
2022/02/17 10:40:24;;;;;;;1999.90;999.90;;;;;;;10.73;82.35;165260.69;5012363;28;21015;-67
2022/02/17 10:43:11;;;;;;;1999.90;999.90;;;;;;;10.53;83.71;165208.34;5014574;28;20520;-68
2022/02/17 10:45:42;;;;;;;1999.90;999.90;;;;;;;10.48;83.76;165194.59;5015260;28;20046;-68
2022/02/17 10:48:28;;;;;;;1999.90;999.90;;;;;;;10.10;83.54;165091.28;5015237;28;20057;-67
2022/02/17 10:51:14;;;;;;;1999.90;999.90;;;;;;;10.08;85.45;165085.75;5014893;28;20538;-68
2022/02/17 10:53:42;;;;;;;1999.90;999.90;;;;;;;10.42;82.45;165178.09;5024327;28;20049;-67